MSC Kalamata — VRPE8 — position and weather

sailwx.info

Track history (hours):
 
Tides and Currents Weather Stations Pressure Air Temp Water Temp Dewpoint Dewpoint Depression Visibility Wind Speed Wind Dir Waves Ship Positions

MSC Kalamata

Last reported at 2018-Feb-21 09:29 UTC. Time now 2018-Feb-21 09:38 UTC.
Position N 37°56' W 008°51'.

Length 304 m; draft 13.5 m.

Type: Ship (hazmat cat D). MMSI: 477510600.

Date/timePositionNaut miles runAvg speedWind from/ knotsBaromVisibWave heightAir tempDewpointWater temp
2018-Feb-21 09:29N 37°56' W 008°51'0 0.0
2018-Feb-21 08:59N 37°56' W 008°51'0 0.0
2018-Feb-21 08:29N 37°56' W 008°51'0 0.0
2018-Feb-21 07:59N 37°56' W 008°51'0 0.0
2018-Feb-21 07:29N 37°56' W 008°51'0 0.0
2018-Feb-21 06:59N 37°56' W 008°51'0 0.0
2018-Feb-21 06:29N 37°56' W 008°51'0 0.0
2018-Feb-21 05:59N 37°56' W 008°51'0 0.0
2018-Feb-21 05:29N 37°56' W 008°51'0 0.0
2018-Feb-21 04:56N 37°56' W 008°51'0 0.0
2018-Feb-21 04:29N 37°56' W 008°51'0 0.0
2018-Feb-21 03:56N 37°56' W 008°51'0 0.0
2018-Feb-21 03:29N 37°56' W 008°51'0 0.0
2018-Feb-21 02:59N 37°56' W 008°51'0 0.0
2018-Feb-21 02:29N 37°56' W 008°51'0 0.0
2018-Feb-21 01:59N 37°56' W 008°51'0 0.0
2018-Feb-21 01:29N 37°56' W 008°51'0 0.0
2018-Feb-21 00:59N 37°56' W 008°51'0 0.0
2018-Feb-21 00:29N 37°56' W 008°51'0 0.0
2018-Feb-20 23:59N 37°56' W 008°51'0 0.0
2018-Feb-20 23:29N 37°56' W 008°51'0 0.0
2018-Feb-20 22:59N 37°56' W 008°51'0 0.0
2018-Feb-20 22:29N 37°56' W 008°51'0 0.0
2018-Feb-20 21:59N 37°56' W 008°51'0 0.0
2018-Feb-20 21:29N 37°56' W 008°51'0 0.0
2018-Feb-20 20:59N 37°56' W 008°51'0 0.0
2018-Feb-20 20:30N 37°56' W 008°51'0 0.0
2018-Feb-20 20:00N 37°56' W 008°51'0 0.8
2018-Feb-20 19:30N 37°56' W 008°51'3 6.1
2018-Feb-20 19:00N 37°53' W 008°50'4 8.2
2018-Feb-20 18:30N 37°49' W 008°53'0 0.6
2018-Feb-20 18:00N 37°49' W 008°53'1 1.1
2018-Feb-20 17:30N 37°49' W 008°53'5 9.9
2018-Feb-20 17:00N 37°44' W 008°56'714.4
2018-Feb-20 16:31N 37°38' W 008°59'917.0
2018-Feb-20 16:01N 37°30' W 009°03'917.1
2018-Feb-20 15:31N 37°22' W 009°08'917.2
2018-Feb-20 15:01N 37°14' W 009°13'917.2
2018-Feb-20 14:30N 37°06' W 009°17'917.5
2018-Feb-20 14:00N 36°58' W 009°19'2715.8
2018-Feb-20 12:17N 36°41' W 008°53'517.1
2018-Feb-20 11:59N 36°39' W 008°47'1017.4
2018-Feb-20 11:26N 36°36' W 008°36'14817.4
2018-Feb-20 02:57N 35°58' W 005°39'816.8
2018-Feb-20 02:31N 35°60' W 005°29'714.8
2018-Feb-20 02:00N 36°05' W 005°23'4 8.6
2018-Feb-20 01:30N 36°09' W 005°25'1 1.8
2018-Feb-20 00:58N 36°08' W 005°26'0 0.0
2018-Feb-20 00:28N 36°08' W 005°26'0 0.0
2018-Feb-19 23:58N 36°08' W 005°26'0 0.0
2018-Feb-19 23:22N 36°08' W 005°26'0 0.0
2018-Feb-19 22:58N 36°08' W 005°26'0 0.0
2018-Feb-19 22:07N 36°08' W 005°26'0 0.0
2018-Feb-19 21:55N 36°08' W 005°26'0 0.0
2018-Feb-19 21:22N 36°08' W 005°26'0 0.0
2018-Feb-19 20:43N 36°08' W 005°26'0 0.0
2018-Feb-19 20:22N 36°08' W 005°26'0 0.0
2018-Feb-19 19:55N 36°08' W 005°26'0 0.0
2018-Feb-19 19:25N 36°08' W 005°26'0 0.0
2018-Feb-19 18:58N 36°08' W 005°26'0 0.0
2018-Feb-19 18:28N 36°08' W 005°26'0 0.0
2018-Feb-19 17:58N 36°08' W 005°26'0 0.0
2018-Feb-19 17:28N 36°08' W 005°26'0 0.0
2018-Feb-19 16:58N 36°08' W 005°26'0 0.0
2018-Feb-19 16:28N 36°08' W 005°26'0 0.0
2018-Feb-19 15:58N 36°08' W 005°26'0 0.0
2018-Feb-19 15:28N 36°08' W 005°26'0 0.0
2018-Feb-19 14:58N 36°08' W 005°26'0 0.0
2018-Feb-19 14:16N 36°08' W 005°26'0 0.0
2018-Feb-19 13:52N 36°08' W 005°26'0 0.1
2018-Feb-19 13:30N 36°08' W 005°26'0 0.7
2018-Feb-19 13:00N 36°09' W 005°26'2 5.0
2018-Feb-19 12:30N 36°07' W 005°24'5 9.2
2018-Feb-19 12:00N 36°03' W 005°21'1 2.0
2018-Feb-19 11:30N 36°03' W 005°19'510.5
2018-Feb-19 11:00N 36°04' W 005°13'21317.1
2018-Feb-18 22:36N 37°14' W 001°03'1919.9
2018-Feb-18 21:37N 37°27' W 000°44'219.5
2018-Feb-18 21:30N 37°28' W 000°42'1019.3
2018-Feb-18 21:01N 37°35' W 000°33'1019.2
2018-Feb-18 20:30N 37°43' W 000°26'1019.0
2018-Feb-18 20:00N 37°51' W 000°20'919.1
2018-Feb-18 19:31N 37°59' W 000°13'8715.6
2018-Feb-18 13:55N 39°26' W 000°18'1 3.1
2018-Feb-18 13:26N 39°26' W 000°20'0 0.1
2018-Feb-18 12:59N 39°26' W 000°20'0 0.0
2018-Feb-18 12:29N 39°26' W 000°20'0 0.0
2018-Feb-18 11:59N 39°26' W 000°20'0 0.0
2018-Feb-18 11:29N 39°26' W 000°20'0 0.0
2018-Feb-18 10:59N 39°26' W 000°20'0 0.0
2018-Feb-18 10:29N 39°26' W 000°20'0 0.0
2018-Feb-18 09:59N 39°26' W 000°20'0 0.0
2018-Feb-18 09:29N 39°26' W 000°20'0 0.0
2018-Feb-18 08:59N 39°26' W 000°20'0 0.0
2018-Feb-18 08:29N 39°26' W 000°20'0 0.0
2018-Feb-18 07:59N 39°26' W 000°20'0 0.1
2018-Feb-18 07:29N 39°26' W 000°20'0 0.1
2018-Feb-18 06:59N 39°26' W 000°20'0 0.0
2018-Feb-18 06:29N 39°26' W 000°20'0 0.0
2018-Feb-18 05:59N 39°26' W 000°20'0 0.0
2018-Feb-18 05:29N 39°26' W 000°20'0 0.0
2018-Feb-18 04:59N 39°26' W 000°20'0 0.0
2018-Feb-18 04:29N 39°26' W 000°20'0 0.0
2018-Feb-18 03:59N 39°26' W 000°20'0 0.0
2018-Feb-18 03:29N 39°26' W 000°20'0 0.0
2018-Feb-18 02:59N 39°26' W 000°20'0 0.0
2018-Feb-18 02:20N 39°26' W 000°20'0 0.0
2018-Feb-18 01:59N 39°26' W 000°20'0 0.0
2018-Feb-18 01:29N 39°26' W 000°20'0 0.0
2018-Feb-18 00:59N 39°26' W 000°20'0 0.0
2018-Feb-18 00:23N 39°26' W 000°20'0 0.0
2018-Feb-17 23:59N 39°26' W 000°20'0 0.0
2018-Feb-17 23:29N 39°26' W 000°20'0 0.0
2018-Feb-17 22:59N 39°26' W 000°20'0 0.0
2018-Feb-17 22:29N 39°26' W 000°20'0 0.0
2018-Feb-17 21:59N 39°26' W 000°20'0 0.0
2018-Feb-17 21:29N 39°26' W 000°20'0 0.0
2018-Feb-17 20:56N 39°26' W 000°20'0 0.0
2018-Feb-17 20:29N 39°26' W 000°20'0 0.0
2018-Feb-17 19:59N 39°26' W 000°20'0 0.0
2018-Feb-17 19:29N 39°26' W 000°20'0 0.0
2018-Feb-17 18:59N 39°26' W 000°20'0 0.0
2018-Feb-17 18:29N 39°26' W 000°20'0 0.0
2018-Feb-17 18:00N 39°26' W 000°20'0 0.3
2018-Feb-17 17:30N 39°26' W 000°19'3 6.2
2018-Feb-17 17:00N 39°25' W 000°16'3 5.5
2018-Feb-17 16:30N 39°26' W 000°12'4 8.5
2018-Feb-17 16:00N 39°27' W 000°07'814.9
2018-Feb-17 15:30N 39°30' E 000°02'12417.9
2018-Feb-17 08:33N 40°32' E 002°23'118.5
2018-Feb-17 08:29N 40°32' E 002°25'918.3
2018-Feb-17 08:00N 40°37' E 002°34'917.6
2018-Feb-17 07:29N 40°42' E 002°45'16918.2
2018-Feb-16 22:14N 42°12' E 005°55'818.4
2018-Feb-16 21:48N 42°16' E 006°04'13019.1
2018-Feb-16 14:59N 43°25' E 008°34'1019.0
2018-Feb-16 14:29N 43°30' E 008°45'919.0
2018-Feb-16 14:00N 43°35' E 008°56'918.9
2018-Feb-16 13:31N 43°40' E 009°07'918.9
2018-Feb-16 13:00N 43°45' E 009°18'1019.2
2018-Feb-16 12:30N 43°50' E 009°29'1019.1
2018-Feb-16 12:00N 43°55' E 009°41'918.9
2018-Feb-16 11:30N 44°01' E 009°51'511.0
2018-Feb-16 11:00N 44°06' E 009°51'0 0.8
2018-Feb-16 10:29N 44°06' E 009°51'0 0.0
2018-Feb-16 09:59N 44°06' E 009°51'0 0.0
2018-Feb-16 09:29N 44°06' E 009°51'0 0.0
2018-Feb-16 08:59N 44°06' E 009°51'0 0.0
2018-Feb-16 08:29N 44°06' E 009°51'0 0.0
2018-Feb-16 07:59N 44°06' E 009°51'0 0.0
2018-Feb-16 07:29N 44°06' E 009°51'0 0.0
2018-Feb-16 06:59N 44°06' E 009°51'0 0.0
2018-Feb-16 06:29N 44°06' E 009°51'0 0.0
2018-Feb-16 05:59N 44°06' E 009°51'0 0.0
2018-Feb-16 05:29N 44°06' E 009°51'0 0.0
2018-Feb-16 04:53N 44°06' E 009°51'0 0.0
2018-Feb-16 04:29N 44°06' E 009°51'0 0.0
2018-Feb-16 03:59N 44°06' E 009°51'0 0.0
2018-Feb-16 03:29N 44°06' E 009°51'0 0.0
2018-Feb-16 02:59N 44°06' E 009°51'0 0.0
2018-Feb-16 02:29N 44°06' E 009°51'0 0.0
2018-Feb-16 01:59N 44°06' E 009°51'0 0.0
2018-Feb-16 01:29N 44°06' E 009°51'0 0.0
2018-Feb-16 00:59N 44°06' E 009°51'0 0.0
2018-Feb-16 00:29N 44°06' E 009°51'0 0.0
2018-Feb-15 23:59N 44°06' E 009°51'0 0.0
2018-Feb-15 23:29N 44°06' E 009°51'0 0.0
2018-Feb-15 22:59N 44°06' E 009°51'0 0.0
2018-Feb-15 22:26N 44°06' E 009°51'0 0.0
2018-Feb-15 21:59N 44°06' E 009°51'0 0.0
2018-Feb-15 21:26N 44°06' E 009°51'0 0.0
2018-Feb-15 20:56N 44°06' E 009°51'0 0.0
2018-Feb-15 20:29N 44°06' E 009°51'0 0.0
2018-Feb-15 19:59N 44°06' E 009°51'0 0.0
2018-Feb-15 19:29N 44°06' E 009°51'0 0.0
2018-Feb-15 18:59N 44°06' E 009°51'0 0.0
2018-Feb-15 18:29N 44°06' E 009°51'0 0.0
2018-Feb-15 17:59N 44°06' E 009°51'0 0.0
2018-Feb-15 17:29N 44°06' E 009°51'0 0.0
2018-Feb-15 16:59N 44°06' E 009°51'0 0.0
2018-Feb-15 16:29N 44°06' E 009°51'0 0.0
2018-Feb-15 15:59N 44°06' E 009°51'0 0.0
2018-Feb-15 15:29N 44°06' E 009°51'0 0.0
2018-Feb-15 14:59N 44°06' E 009°51'0 0.0
2018-Feb-15 14:29N 44°06' E 009°51'0 0.0
2018-Feb-15 13:59N 44°06' E 009°51'0 0.0
2018-Feb-15 13:29N 44°06' E 009°51'0 0.0
2018-Feb-15 12:59N 44°06' E 009°51'0 0.0
2018-Feb-15 12:29N 44°06' E 009°51'0 0.0
2018-Feb-15 11:59N 44°06' E 009°51'0 0.0
2018-Feb-15 11:29N 44°06' E 009°51'0 0.0
2018-Feb-15 10:56N 44°06' E 009°51'0 0.0
2018-Feb-15 10:29N 44°06' E 009°51'0 0.0
2018-Feb-15 09:59N 44°06' E 009°51'0 0.0
2018-Feb-15 09:29N 44°06' E 009°51'0 0.0
2018-Feb-15 09:00N 44°06' E 009°51'0 0.4
2018-Feb-15 08:30N 44°06' E 009°51'3 6.0
2018-Feb-15 08:00N 44°03' E 009°52'5 9.5
2018-Feb-15 07:30N 44°00' E 009°57'611.2
2018-Feb-15 07:00N 43°55' E 009°59'713.6
2018-Feb-15 06:30N 43°48' E 010°02'917.9
2018-Feb-15 06:00N 43°40' E 010°05'917.8
2018-Feb-15 05:30N 43°31' E 010°05'918.0
2018-Feb-15 05:00N 43°22' E 010°03'918.0
2018-Feb-15 04:31N 43°13' E 010°02'918.3
2018-Feb-15 04:00N 43°04' E 010°01'918.3
2018-Feb-15 03:30N 42°55' E 010°01'1718.4
2018-Feb-15 02:36N 42°39' E 010°09'520.4
2018-Feb-15 02:21N 42°35' E 010°13'720.4
2018-Feb-15 02:00N 42°30' E 010°21'31020.1
2018-Feb-14 10:38N 38°56' E 015°15'219.4
2018-Feb-14 10:30N 38°54' E 015°17'1019.4
2018-Feb-14 10:00N 38°48' E 015°26'1019.8
2018-Feb-14 09:30N 38°41' E 015°36'1019.9
2018-Feb-14 09:00N 38°34' E 015°45'816.9
2018-Feb-14 08:30N 38°28' E 015°52'2 0.1
2018-Feb-13 05:07N 38°27' E 015°54'0 0.0
2018-Feb-13 04:55N 38°27' E 015°54'0 0.0
2018-Feb-13 04:25N 38°27' E 015°54'0 0.0
2018-Feb-13 03:55N 38°27' E 015°54'0 0.0
2018-Feb-13 02:07N 38°27' E 015°54'0 0.0
2018-Feb-13 01:55N 38°27' E 015°54'0 0.0
2018-Feb-13 01:25N 38°27' E 015°54'0 0.0
2018-Feb-13 00:19N 38°27' E 015°54'0 0.0
2018-Feb-12 23:55N 38°27' E 015°54'0 0.0
2018-Feb-12 22:49N 38°27' E 015°54'0 0.0
2018-Feb-12 20:05N 38°27' E 015°54'6 7.0
2018-Feb-12 19:13N 38°28' E 015°47'314.0
2018-Feb-12 18:59N 38°31' E 015°44'612.2
2018-Feb-12 18:30N 38°35' E 015°39'3 5.8
2018-Feb-12 18:00N 38°38' E 015°38'0 0.6
2018-Feb-12 17:30N 38°38' E 015°38'0 0.6
2018-Feb-12 16:58N 38°38' E 015°38'0 0.7
2018-Feb-12 16:30N 38°38' E 015°37'0 0.8
2018-Feb-12 15:59N 38°39' E 015°37'1 0.8
2018-Feb-12 15:14N 38°39' E 015°36'0 0.9
2018-Feb-12 15:00N 38°39' E 015°36'0 0.7
2018-Feb-12 14:30N 38°39' E 015°36'0 0.3
2018-Feb-12 14:00N 38°39' E 015°36'3 5.4
2018-Feb-12 13:29N 38°42' E 015°37'4 8.5
2018-Feb-12 12:58N 38°46' E 015°36'5 9.1
2018-Feb-12 12:28N 38°50' E 015°32'5 9.0
2018-Feb-12 11:58N 38°54' E 015°29'33 9.3
2018-Feb-12 08:25N 39°21' E 015°06'4 9.4
2018-Feb-12 08:00N 39°24' E 015°03'5 9.1
2018-Feb-12 07:30N 39°28' E 014°59'19 8.9
2018-Feb-12 05:25N 39°43' E 014°46'8 9.0
2018-Feb-12 04:31N 39°50' E 014°40'0 9.2
2018-Feb-12 04:30N 39°50' E 014°40'5 9.2
2018-Feb-12 04:00N 39°54' E 014°37'58 7.3
2018-Feb-11 20:03N 40°50' E 014°17'0 0.0
2018-Feb-11 19:54N 40°50' E 014°17'0 0.0
2018-Feb-11 19:21N 40°50' E 014°17'0 0.0
2018-Feb-11 18:51N 40°50' E 014°17'0 0.0
2018-Feb-11 18:21N 40°50' E 014°17'0 0.0
2018-Feb-11 17:54N 40°50' E 014°17'0 0.0
2018-Feb-11 17:24N 40°50' E 014°17'0 0.0
2018-Feb-11 16:57N 40°50' E 014°17'0 0.0
2018-Feb-11 16:27N 40°50' E 014°17'0 0.0
2018-Feb-11 15:57N 40°50' E 014°17'0 0.0
2018-Feb-11 15:27N 40°50' E 014°17'0 0.0
2018-Feb-11 14:57N 40°50' E 014°17'0 0.0
2018-Feb-11 14:27N 40°50' E 014°17'0 0.0
2018-Feb-11 13:57N 40°50' E 014°17'0 0.0
2018-Feb-11 13:30N 40°50' E 014°17'0 0.0
2018-Feb-11 12:57N 40°50' E 014°17'0 0.0
2018-Feb-11 12:30N 40°50' E 014°17'0 0.0
2018-Feb-11 12:00N 40°50' E 014°17'0 0.0
2018-Feb-11 11:30N 40°50' E 014°17'0 0.0
2018-Feb-11 11:00N 40°50' E 014°17'0 0.0
2018-Feb-11 10:30N 40°50' E 014°17'0 0.0
2018-Feb-11 10:00N 40°50' E 014°17'0 0.0
2018-Feb-11 09:30N 40°50' E 014°17'  
Track history (hours):
 
Tides and Currents Weather Stations Pressure Air Temp Water Temp Dewpoint Dewpoint Depression Visibility Wind Speed Wind Dir Waves Ship Positions

MSC Kalamata

Last reported at 2018-Feb-21 09:29 UTC. Time now 2018-Feb-21 09:38 UTC.
Position N 37°56' W 008°51'.

Length 304 m; draft 13.5 m.

Type: Ship (hazmat cat D). MMSI: 477510600.

Date/timePositionNaut miles runAvg speedWind from/ knotsBaromVisibWave heightAir tempDewpointWater temp
2018-Feb-21 09:29N 37°56' W 008°51'0 0.0
2018-Feb-21 08:59N 37°56' W 008°51'0 0.0
2018-Feb-21 08:29N 37°56' W 008°51'0 0.0
2018-Feb-21 07:59N 37°56' W 008°51'0 0.0
2018-Feb-21 07:29N 37°56' W 008°51'0 0.0
2018-Feb-21 06:59N 37°56' W 008°51'0 0.0
2018-Feb-21 06:29N 37°56' W 008°51'0 0.0
2018-Feb-21 05:59N 37°56' W 008°51'0 0.0
2018-Feb-21 05:29N 37°56' W 008°51'0 0.0
2018-Feb-21 04:56N 37°56' W 008°51'0 0.0
2018-Feb-21 04:29N 37°56' W 008°51'0 0.0
2018-Feb-21 03:56N 37°56' W 008°51'0 0.0
2018-Feb-21 03:29N 37°56' W 008°51'0 0.0
2018-Feb-21 02:59N 37°56' W 008°51'0 0.0
2018-Feb-21 02:29N 37°56' W 008°51'0 0.0
2018-Feb-21 01:59N 37°56' W 008°51'0 0.0
2018-Feb-21 01:29N 37°56' W 008°51'0 0.0
2018-Feb-21 00:59N 37°56' W 008°51'0 0.0
2018-Feb-21 00:29N 37°56' W 008°51'0 0.0
2018-Feb-20 23:59N 37°56' W 008°51'0 0.0
2018-Feb-20 23:29N 37°56' W 008°51'0 0.0
2018-Feb-20 22:59N 37°56' W 008°51'0 0.0
2018-Feb-20 22:29N 37°56' W 008°51'0 0.0
2018-Feb-20 21:59N 37°56' W 008°51'0 0.0
2018-Feb-20 21:29N 37°56' W 008°51'0 0.0
2018-Feb-20 20:59N 37°56' W 008°51'0 0.0
2018-Feb-20 20:30N 37°56' W 008°51'0 0.0
2018-Feb-20 20:00N 37°56' W 008°51'0 0.8
2018-Feb-20 19:30N 37°56' W 008°51'3 6.1
2018-Feb-20 19:00N 37°53' W 008°50'4 8.2
2018-Feb-20 18:30N 37°49' W 008°53'0 0.6
2018-Feb-20 18:00N 37°49' W 008°53'1 1.1
2018-Feb-20 17:30N 37°49' W 008°53'5 9.9
2018-Feb-20 17:00N 37°44' W 008°56'714.4
2018-Feb-20 16:31N 37°38' W 008°59'917.0
2018-Feb-20 16:01N 37°30' W 009°03'917.1
2018-Feb-20 15:31N 37°22' W 009°08'917.2
2018-Feb-20 15:01N 37°14' W 009°13'917.2
2018-Feb-20 14:30N 37°06' W 009°17'917.5
2018-Feb-20 14:00N 36°58' W 009°19'2715.8
2018-Feb-20 12:17N 36°41' W 008°53'517.1
2018-Feb-20 11:59N 36°39' W 008°47'1017.4
2018-Feb-20 11:26N 36°36' W 008°36'14817.4
2018-Feb-20 02:57N 35°58' W 005°39'816.8
2018-Feb-20 02:31N 35°60' W 005°29'714.8
2018-Feb-20 02:00N 36°05' W 005°23'4 8.6
2018-Feb-20 01:30N 36°09' W 005°25'1 1.8
2018-Feb-20 00:58N 36°08' W 005°26'0 0.0
2018-Feb-20 00:28N 36°08' W 005°26'0 0.0
2018-Feb-19 23:58N 36°08' W 005°26'0 0.0
2018-Feb-19 23:22N 36°08' W 005°26'0 0.0
2018-Feb-19 22:58N 36°08' W 005°26'0 0.0
2018-Feb-19 22:07N 36°08' W 005°26'0 0.0
2018-Feb-19 21:55N 36°08' W 005°26'0 0.0
2018-Feb-19 21:22N 36°08' W 005°26'0 0.0
2018-Feb-19 20:43N 36°08' W 005°26'0 0.0
2018-Feb-19 20:22N 36°08' W 005°26'0 0.0
2018-Feb-19 19:55N 36°08' W 005°26'0 0.0
2018-Feb-19 19:25N 36°08' W 005°26'0 0.0
2018-Feb-19 18:58N 36°08' W 005°26'0 0.0
2018-Feb-19 18:28N 36°08' W 005°26'0 0.0
2018-Feb-19 17:58N 36°08' W 005°26'0 0.0
2018-Feb-19 17:28N 36°08' W 005°26'0 0.0
2018-Feb-19 16:58N 36°08' W 005°26'0 0.0
2018-Feb-19 16:28N 36°08' W 005°26'0 0.0
2018-Feb-19 15:58N 36°08' W 005°26'0 0.0
2018-Feb-19 15:28N 36°08' W 005°26'0 0.0
2018-Feb-19 14:58N 36°08' W 005°26'0 0.0
2018-Feb-19 14:16N 36°08' W 005°26'0 0.0
2018-Feb-19 13:52N 36°08' W 005°26'0 0.1
2018-Feb-19 13:30N 36°08' W 005°26'0 0.7
2018-Feb-19 13:00N 36°09' W 005°26'2 5.0
2018-Feb-19 12:30N 36°07' W 005°24'5 9.2
2018-Feb-19 12:00N 36°03' W 005°21'1 2.0
2018-Feb-19 11:30N 36°03' W 005°19'510.5
2018-Feb-19 11:00N 36°04' W 005°13'21317.1
2018-Feb-18 22:36N 37°14' W 001°03'1919.9
2018-Feb-18 21:37N 37°27' W 000°44'219.5
2018-Feb-18 21:30N 37°28' W 000°42'1019.3
2018-Feb-18 21:01N 37°35' W 000°33'1019.2
2018-Feb-18 20:30N 37°43' W 000°26'1019.0
2018-Feb-18 20:00N 37°51' W 000°20'919.1
2018-Feb-18 19:31N 37°59' W 000°13'8715.6
2018-Feb-18 13:55N 39°26' W 000°18'1 3.1
2018-Feb-18 13:26N 39°26' W 000°20'0 0.1
2018-Feb-18 12:59N 39°26' W 000°20'0 0.0
2018-Feb-18 12:29N 39°26' W 000°20'0 0.0
2018-Feb-18 11:59N 39°26' W 000°20'0 0.0
2018-Feb-18 11:29N 39°26' W 000°20'0 0.0
2018-Feb-18 10:59N 39°26' W 000°20'0 0.0
2018-Feb-18 10:29N 39°26' W 000°20'0 0.0
2018-Feb-18 09:59N 39°26' W 000°20'0 0.0
2018-Feb-18 09:29N 39°26' W 000°20'0 0.0
2018-Feb-18 08:59N 39°26' W 000°20'0 0.0
2018-Feb-18 08:29N 39°26' W 000°20'0 0.0
2018-Feb-18 07:59N 39°26' W 000°20'0 0.1
2018-Feb-18 07:29N 39°26' W 000°20'0 0.1
2018-Feb-18 06:59N 39°26' W 000°20'0 0.0
2018-Feb-18 06:29N 39°26' W 000°20'0 0.0
2018-Feb-18 05:59N 39°26' W 000°20'0 0.0
2018-Feb-18 05:29N 39°26' W 000°20'0 0.0
2018-Feb-18 04:59N 39°26' W 000°20'0 0.0
2018-Feb-18 04:29N 39°26' W 000°20'0 0.0
2018-Feb-18 03:59N 39°26' W 000°20'0 0.0
2018-Feb-18 03:29N 39°26' W 000°20'0 0.0
2018-Feb-18 02:59N 39°26' W 000°20'0 0.0
2018-Feb-18 02:20N 39°26' W 000°20'0 0.0
2018-Feb-18 01:59N 39°26' W 000°20'0 0.0
2018-Feb-18 01:29N 39°26' W 000°20'0 0.0
2018-Feb-18 00:59N 39°26' W 000°20'0 0.0
2018-Feb-18 00:23N 39°26' W 000°20'0 0.0
2018-Feb-17 23:59N 39°26' W 000°20'0 0.0
2018-Feb-17 23:29N 39°26' W 000°20'0 0.0
2018-Feb-17 22:59N 39°26' W 000°20'0 0.0
2018-Feb-17 22:29N 39°26' W 000°20'0 0.0
2018-Feb-17 21:59N 39°26' W 000°20'0 0.0
2018-Feb-17 21:29N 39°26' W 000°20'0 0.0
2018-Feb-17 20:56N 39°26' W 000°20'0 0.0
2018-Feb-17 20:29N 39°26' W 000°20'0 0.0
2018-Feb-17 19:59N 39°26' W 000°20'0 0.0
2018-Feb-17 19:29N 39°26' W 000°20'0 0.0
2018-Feb-17 18:59N 39°26' W 000°20'0 0.0
2018-Feb-17 18:29N 39°26' W 000°20'0 0.0
2018-Feb-17 18:00N 39°26' W 000°20'0 0.3
2018-Feb-17 17:30N 39°26' W 000°19'3 6.2
2018-Feb-17 17:00N 39°25' W 000°16'3 5.5
2018-Feb-17 16:30N 39°26' W 000°12'4 8.5
2018-Feb-17 16:00N 39°27' W 000°07'814.9
2018-Feb-17 15:30N 39°30' E 000°02'12417.9
2018-Feb-17 08:33N 40°32' E 002°23'118.5
2018-Feb-17 08:29N 40°32' E 002°25'918.3
2018-Feb-17 08:00N 40°37' E 002°34'917.6
2018-Feb-17 07:29N 40°42' E 002°45'16918.2
2018-Feb-16 22:14N 42°12' E 005°55'818.4
2018-Feb-16 21:48N 42°16' E 006°04'13019.1
2018-Feb-16 14:59N 43°25' E 008°34'1019.0
2018-Feb-16 14:29N 43°30' E 008°45'919.0
2018-Feb-16 14:00N 43°35' E 008°56'918.9
2018-Feb-16 13:31N 43°40' E 009°07'918.9
2018-Feb-16 13:00N 43°45' E 009°18'1019.2
2018-Feb-16 12:30N 43°50' E 009°29'1019.1
2018-Feb-16 12:00N 43°55' E 009°41'918.9
2018-Feb-16 11:30N 44°01' E 009°51'511.0
2018-Feb-16 11:00N 44°06' E 009°51'0 0.8
2018-Feb-16 10:29N 44°06' E 009°51'0 0.0
2018-Feb-16 09:59N 44°06' E 009°51'0 0.0
2018-Feb-16 09:29N 44°06' E 009°51'0 0.0
2018-Feb-16 08:59N 44°06' E 009°51'0 0.0
2018-Feb-16 08:29N 44°06' E 009°51'0 0.0
2018-Feb-16 07:59N 44°06' E 009°51'0 0.0
2018-Feb-16 07:29N 44°06' E 009°51'0 0.0
2018-Feb-16 06:59N 44°06' E 009°51'0 0.0
2018-Feb-16 06:29N 44°06' E 009°51'0 0.0
2018-Feb-16 05:59N 44°06' E 009°51'0 0.0
2018-Feb-16 05:29N 44°06' E 009°51'0 0.0
2018-Feb-16 04:53N 44°06' E 009°51'0 0.0
2018-Feb-16 04:29N 44°06' E 009°51'0 0.0
2018-Feb-16 03:59N 44°06' E 009°51'0 0.0
2018-Feb-16 03:29N 44°06' E 009°51'0 0.0
2018-Feb-16 02:59N 44°06' E 009°51'0 0.0
2018-Feb-16 02:29N 44°06' E 009°51'0 0.0
2018-Feb-16 01:59N 44°06' E 009°51'0 0.0
2018-Feb-16 01:29N 44°06' E 009°51'0 0.0
2018-Feb-16 00:59N 44°06' E 009°51'0 0.0
2018-Feb-16 00:29N 44°06' E 009°51'0 0.0
2018-Feb-15 23:59N 44°06' E 009°51'0 0.0
2018-Feb-15 23:29N 44°06' E 009°51'0 0.0
2018-Feb-15 22:59N 44°06' E 009°51'0 0.0
2018-Feb-15 22:26N 44°06' E 009°51'0 0.0
2018-Feb-15 21:59N 44°06' E 009°51'0 0.0
2018-Feb-15 21:26N 44°06' E 009°51'0 0.0
2018-Feb-15 20:56N 44°06' E 009°51'0 0.0
2018-Feb-15 20:29N 44°06' E 009°51'0 0.0
2018-Feb-15 19:59N 44°06' E 009°51'0 0.0
2018-Feb-15 19:29N 44°06' E 009°51'0 0.0
2018-Feb-15 18:59N 44°06' E 009°51'0 0.0
2018-Feb-15 18:29N 44°06' E 009°51'0 0.0
2018-Feb-15 17:59N 44°06' E 009°51'0 0.0
2018-Feb-15 17:29N 44°06' E 009°51'0 0.0
2018-Feb-15 16:59N 44°06' E 009°51'0 0.0
2018-Feb-15 16:29N 44°06' E 009°51'0 0.0
2018-Feb-15 15:59N 44°06' E 009°51'0 0.0
2018-Feb-15 15:29N 44°06' E 009°51'0 0.0
2018-Feb-15 14:59N 44°06' E 009°51'0 0.0
2018-Feb-15 14:29N 44°06' E 009°51'0 0.0
2018-Feb-15 13:59N 44°06' E 009°51'0 0.0
2018-Feb-15 13:29N 44°06' E 009°51'0 0.0
2018-Feb-15 12:59N 44°06' E 009°51'0 0.0
2018-Feb-15 12:29N 44°06' E 009°51'0 0.0
2018-Feb-15 11:59N 44°06' E 009°51'0 0.0
2018-Feb-15 11:29N 44°06' E 009°51'0 0.0
2018-Feb-15 10:56N 44°06' E 009°51'0 0.0
2018-Feb-15 10:29N 44°06' E 009°51'0 0.0
2018-Feb-15 09:59N 44°06' E 009°51'0 0.0
2018-Feb-15 09:29N 44°06' E 009°51'0 0.0
2018-Feb-15 09:00N 44°06' E 009°51'0 0.4
2018-Feb-15 08:30N 44°06' E 009°51'3 6.0
2018-Feb-15 08:00N 44°03' E 009°52'5 9.5
2018-Feb-15 07:30N 44°00' E 009°57'611.2
2018-Feb-15 07:00N 43°55' E 009°59'713.6
2018-Feb-15 06:30N 43°48' E 010°02'917.9
2018-Feb-15 06:00N 43°40' E 010°05'917.8
2018-Feb-15 05:30N 43°31' E 010°05'918.0
2018-Feb-15 05:00N 43°22' E 010°03'918.0
2018-Feb-15 04:31N 43°13' E 010°02'918.3
2018-Feb-15 04:00N 43°04' E 010°01'918.3
2018-Feb-15 03:30N 42°55' E 010°01'1718.4
2018-Feb-15 02:36N 42°39' E 010°09'520.4
2018-Feb-15 02:21N 42°35' E 010°13'720.4
2018-Feb-15 02:00N 42°30' E 010°21'31020.1
2018-Feb-14 10:38N 38°56' E 015°15'219.4
2018-Feb-14 10:30N 38°54' E 015°17'1019.4
2018-Feb-14 10:00N 38°48' E 015°26'1019.8
2018-Feb-14 09:30N 38°41' E 015°36'1019.9
2018-Feb-14 09:00N 38°34' E 015°45'816.9
2018-Feb-14 08:30N 38°28' E 015°52'2 0.1
2018-Feb-13 05:07N 38°27' E 015°54'0 0.0
2018-Feb-13 04:55N 38°27' E 015°54'0 0.0
2018-Feb-13 04:25N 38°27' E 015°54'0 0.0
2018-Feb-13 03:55N 38°27' E 015°54'0 0.0
2018-Feb-13 02:07N 38°27' E 015°54'0 0.0
2018-Feb-13 01:55N 38°27' E 015°54'0 0.0
2018-Feb-13 01:25N 38°27' E 015°54'0 0.0
2018-Feb-13 00:19N 38°27' E 015°54'0 0.0
2018-Feb-12 23:55N 38°27' E 015°54'0 0.0
2018-Feb-12 22:49N 38°27' E 015°54'0 0.0
2018-Feb-12 20:05N 38°27' E 015°54'6 7.0
2018-Feb-12 19:13N 38°28' E 015°47'314.0
2018-Feb-12 18:59N 38°31' E 015°44'612.2
2018-Feb-12 18:30N 38°35' E 015°39'3 5.8
2018-Feb-12 18:00N 38°38' E 015°38'0 0.6
2018-Feb-12 17:30N 38°38' E 015°38'0 0.6
2018-Feb-12 16:58N 38°38' E 015°38'0 0.7
2018-Feb-12 16:30N 38°38' E 015°37'0 0.8
2018-Feb-12 15:59N 38°39' E 015°37'1 0.8
2018-Feb-12 15:14N 38°39' E 015°36'0 0.9
2018-Feb-12 15:00N 38°39' E 015°36'0 0.7
2018-Feb-12 14:30N 38°39' E 015°36'0 0.3
2018-Feb-12 14:00N 38°39' E 015°36'3 5.4
2018-Feb-12 13:29N 38°42' E 015°37'4 8.5
2018-Feb-12 12:58N 38°46' E 015°36'5 9.1
2018-Feb-12 12:28N 38°50' E 015°32'5 9.0
2018-Feb-12 11:58N 38°54' E 015°29'33 9.3
2018-Feb-12 08:25N 39°21' E 015°06'4 9.4
2018-Feb-12 08:00N 39°24' E 015°03'5 9.1
2018-Feb-12 07:30N 39°28' E 014°59'19 8.9
2018-Feb-12 05:25N 39°43' E 014°46'8 9.0
2018-Feb-12 04:31N 39°50' E 014°40'0 9.2
2018-Feb-12 04:30N 39°50' E 014°40'5 9.2
2018-Feb-12 04:00N 39°54' E 014°37'58 7.3
2018-Feb-11 20:03N 40°50' E 014°17'0 0.0
2018-Feb-11 19:54N 40°50' E 014°17'0 0.0
2018-Feb-11 19:21N 40°50' E 014°17'0 0.0
2018-Feb-11 18:51N 40°50' E 014°17'0 0.0
2018-Feb-11 18:21N 40°50' E 014°17'0 0.0
2018-Feb-11 17:54N 40°50' E 014°17'0 0.0
2018-Feb-11 17:24N 40°50' E 014°17'0 0.0
2018-Feb-11 16:57N 40°50' E 014°17'0 0.0
2018-Feb-11 16:27N 40°50' E 014°17'0 0.0
2018-Feb-11 15:57N 40°50' E 014°17'0 0.0
2018-Feb-11 15:27N 40°50' E 014°17'0 0.0
2018-Feb-11 14:57N 40°50' E 014°17'0 0.0
2018-Feb-11 14:27N 40°50' E 014°17'0 0.0
2018-Feb-11 13:57N 40°50' E 014°17'0 0.0
2018-Feb-11 13:30N 40°50' E 014°17'0 0.0
2018-Feb-11 12:57N 40°50' E 014°17'0 0.0
2018-Feb-11 12:30N 40°50' E 014°17'0 0.0
2018-Feb-11 12:00N 40°50' E 014°17'0 0.0
2018-Feb-11 11:30N 40°50' E 014°17'0 0.0
2018-Feb-11 11:00N 40°50' E 014°17'0 0.0
2018-Feb-11 10:30N 40°50' E 014°17'0 0.0
2018-Feb-11 10:00N 40°50' E 014°17'0 0.0
2018-Feb-11 09:30N 40°50' E 014°17'  

Dump ship's entire track history